AAL2950 KCLT-KSTL
Flight info
| Callsign | AAL2950 |
|---|---|
| Flight time | N/A |
| Altitude | 38000 |
| Route | BOBZY5 BNA BOOSH3 |
| Aircraft | A21N/M-SDE2E3FGHIJ1RWXY/LB1 |
Departure
| Time | 2026-05-04 22:07 |
|---|---|
| Airport | Charlotte Douglas International Airport (KCLT) |
Arrival
| Time | N/A |
|---|---|
| Airport | St. Louis Lambert International Airport (KSTL) |
| Time | Latitude | Longitude | Altitude | Speed | Heading |
|---|---|---|---|---|---|
| 2026-05-04 21:39 | 35.21756 | -80.94199 | 758 ft | 0 kts | 342° |
| 2026-05-04 21:59 | 35.21755 | -80.94199 | 758 ft | 1 kts | 342° |
| 2026-05-04 21:59 | 35.21741 | -80.94193 | 758 ft | 2 kts | 343° |
| 2026-05-04 22:00 | 35.21727 | -80.94188 | 758 ft | 2 kts | 342° |
| 2026-05-04 22:00 | 35.21717 | -80.94184 | 758 ft | 1 kts | 343° |
| 2026-05-04 22:00 | 35.21706 | -80.94174 | 758 ft | 2 kts | 291° |
| 2026-05-04 22:00 | 35.21706 | -80.94157 | 758 ft | 1 kts | 238° |
| 2026-05-04 22:01 | 35.21710 | -80.94151 | 758 ft | 1 kts | 221° |
| 2026-05-04 22:01 | 35.21713 | -80.94147 | 758 ft | 0 kts | 226° |
| 2026-05-04 22:02 | 35.21709 | -80.94153 | 758 ft | 1 kts | 226° |
| 2026-05-04 22:03 | 35.21690 | -80.94176 | 758 ft | 7 kts | 226° |
| 2026-05-04 22:03 | 35.21646 | -80.94254 | 758 ft | 14 kts | 261° |
| 2026-05-04 22:03 | 35.21643 | -80.94408 | 758 ft | 21 kts | 266° |
| 2026-05-04 22:03 | 35.21631 | -80.94613 | 758 ft | 24 kts | 265° |
| 2026-05-04 22:04 | 35.21617 | -80.94823 | 758 ft | 24 kts | 266° |
| 2026-05-04 22:04 | 35.21639 | -80.95007 | 758 ft | 20 kts | 330° |
| 2026-05-04 22:04 | 35.21774 | -80.95026 | 758 ft | 20 kts | 355° |
| 2026-05-04 22:04 | 35.21916 | -80.95039 | 758 ft | 20 kts | 358° |
| 2026-05-04 22:05 | 35.22062 | -80.95053 | 758 ft | 21 kts | 354° |
| 2026-05-04 22:05 | 35.22211 | -80.95065 | 758 ft | 21 kts | 357° |
| 2026-05-04 22:05 | 35.22362 | -80.95078 | 758 ft | 22 kts | 355° |
| 2026-05-04 22:05 | 35.22516 | -80.95091 | 758 ft | 22 kts | 355° |
| 2026-05-04 22:06 | 35.22670 | -80.95104 | 758 ft | 22 kts | 356° |
| 2026-05-04 22:06 | 35.22736 | -80.95231 | 758 ft | 20 kts | 262° |
| 2026-05-04 22:06 | 35.22655 | -80.95308 | 758 ft | 20 kts | 179° |
| 2026-05-04 22:06 | 35.22265 | -80.95274 | 758 ft | 93 kts | 175° |
| 2026-05-04 22:07 | 35.21398 | -80.95199 | 759 ft | 156 kts | 177° |
| 2026-05-04 22:07 | 35.20199 | -80.95084 | 1056 ft | 182 kts | 178° |
| 2026-05-04 22:07 | 35.18940 | -80.94942 | 1722 ft | 186 kts | 177° |
| 2026-05-04 22:07 | 35.17635 | -80.94793 | 2326 ft | 194 kts | 178° |
| 2026-05-04 22:08 | 35.16282 | -80.94659 | 2905 ft | 197 kts | 181° |
| 2026-05-04 22:08 | 35.14970 | -80.95047 | 3165 ft | 204 kts | 214° |
| 2026-05-04 22:08 | 35.13897 | -80.96249 | 3447 ft | 217 kts | 230° |
| 2026-05-04 22:08 | 35.12923 | -80.97749 | 3806 ft | 231 kts | 242° |
| 2026-05-04 22:09 | 35.12575 | -80.99687 | 4118 ft | 247 kts | 274° |
| 2026-05-04 22:09 | 35.12800 | -81.01809 | 4604 ft | 259 kts | 279° |
| 2026-05-04 22:09 | 35.13099 | -81.03963 | 5322 ft | 262 kts | 279° |
| 2026-05-04 22:09 | 35.13377 | -81.06139 | 6098 ft | 264 kts | 279° |
| 2026-05-04 22:10 | 35.13628 | -81.08315 | 6869 ft | 266 kts | 278° |
| 2026-05-04 22:10 | 35.13867 | -81.10571 | 7672 ft | 268 kts | 277° |
| 2026-05-04 22:10 | 35.14091 | -81.12810 | 8476 ft | 270 kts | 277° |
| 2026-05-04 22:10 | 35.14310 | -81.15070 | 9291 ft | 271 kts | 276° |
| 2026-05-04 22:11 | 35.14525 | -81.17353 | 10100 ft | 273 kts | 275° |
| 2026-05-04 22:11 | 35.14739 | -81.19671 | 10716 ft | 282 kts | 274° |
| 2026-05-04 22:11 | 35.14959 | -81.22111 | 11180 ft | 296 kts | 274° |
| 2026-05-04 22:11 | 35.15191 | -81.24703 | 11535 ft | 313 kts | 274° |
| 2026-05-04 22:12 | 35.15427 | -81.27344 | 11839 ft | 331 kts | 274° |
| 2026-05-04 22:12 | 35.15684 | -81.30232 | 12144 ft | 348 kts | 274° |
| 2026-05-04 22:12 | 35.15947 | -81.33214 | 12437 ft | 364 kts | 274° |
| 2026-05-04 22:12 | 35.16225 | -81.36356 | 12723 ft | 380 kts | 274° |
| 2026-05-04 22:13 | 35.16510 | -81.39569 | 13205 ft | 389 kts | 274° |
| 2026-05-04 22:13 | 35.16804 | -81.42875 | 13952 ft | 392 kts | 274° |
| 2026-05-04 22:13 | 35.17097 | -81.46187 | 14673 ft | 394 kts | 274° |
| 2026-05-04 22:13 | 35.17390 | -81.49542 | 15354 ft | 396 kts | 273° |
| 2026-05-04 22:14 | 35.17678 | -81.52853 | 16012 ft | 399 kts | 273° |
| 2026-05-04 22:14 | 35.17970 | -81.56212 | 16653 ft | 402 kts | 273° |
| 2026-05-04 22:14 | 35.18263 | -81.59604 | 17281 ft | 404 kts | 272° |
| 2026-05-04 22:14 | 35.18470 | -81.63019 | 17895 ft | 405 kts | 270° |
| 2026-05-04 22:15 | 35.18528 | -81.66500 | 18506 ft | 406 kts | 266° |
| 2026-05-04 22:15 | 35.18476 | -81.69926 | 19104 ft | 408 kts | 265° |
| 2026-05-04 22:15 | 35.18404 | -81.73515 | 19707 ft | 411 kts | 265° |
| 2026-05-04 22:15 | 35.18327 | -81.77153 | 20297 ft | 413 kts | 265° |
| 2026-05-04 22:16 | 35.18249 | -81.80800 | 20854 ft | 415 kts | 265° |
| 2026-05-04 22:16 | 35.18169 | -81.84515 | 21385 ft | 418 kts | 265° |
| 2026-05-04 22:16 | 35.18089 | -81.88148 | 21882 ft | 421 kts | 265° |
| 2026-05-04 22:16 | 35.18006 | -81.91936 | 22404 ft | 423 kts | 265° |
| 2026-05-04 22:17 | 35.17923 | -81.95615 | 22885 ft | 426 kts | 265° |
| 2026-05-04 22:17 | 35.17836 | -81.99393 | 23371 ft | 428 kts | 265° |
| 2026-05-04 22:17 | 35.17748 | -82.03175 | 23960 ft | 427 kts | 265° |
| 2026-05-04 22:17 | 35.17661 | -82.06883 | 24648 ft | 423 kts | 265° |
| 2026-05-04 22:18 | 35.17572 | -82.10628 | 25331 ft | 419 kts | 265° |
| 2026-05-04 22:18 | 35.17483 | -82.14349 | 25945 ft | 416 kts | 265° |
| 2026-05-04 22:18 | 35.17505 | -82.17864 | 26477 ft | 416 kts | 269° |
| 2026-05-04 22:18 | 35.17796 | -82.21534 | 27020 ft | 417 kts | 274° |
| 2026-05-04 22:19 | 35.18356 | -82.25147 | 27536 ft | 418 kts | 278° |
| 2026-05-04 22:19 | 35.19137 | -82.28709 | 28071 ft | 417 kts | 281° |
| 2026-05-04 22:19 | 35.19967 | -82.32254 | 28626 ft | 414 kts | 281° |
| 2026-05-04 22:19 | 35.20794 | -82.35751 | 29141 ft | 412 kts | 281° |
| 2026-05-04 22:20 | 35.21592 | -82.39126 | 29591 ft | 410 kts | 281° |
| 2026-05-04 22:20 | 35.22378 | -82.42450 | 30021 ft | 408 kts | 281° |
| 2026-05-04 22:20 | 35.23164 | -82.45793 | 30454 ft | 406 kts | 281° |
| 2026-05-04 22:20 | 35.23955 | -82.49158 | 30875 ft | 404 kts | 281° |
| 2026-05-04 22:21 | 35.24726 | -82.52454 | 31295 ft | 402 kts | 281° |
| 2026-05-04 22:21 | 35.25513 | -82.55810 | 31702 ft | 400 kts | 281° |
| 2026-05-04 22:21 | 35.26280 | -82.59092 | 32060 ft | 399 kts | 281° |
| 2026-05-04 22:21 | 35.27041 | -82.62352 | 32438 ft | 397 kts | 280° |
| 2026-05-04 22:22 | 35.27795 | -82.65576 | 32792 ft | 395 kts | 280° |
| 2026-05-04 22:22 | 35.28543 | -82.68801 | 33148 ft | 394 kts | 279° |
| 2026-05-04 22:22 | 35.29290 | -82.72015 | 33504 ft | 392 kts | 279° |
| 2026-05-04 22:22 | 35.30041 | -82.75244 | 33863 ft | 391 kts | 279° |
| 2026-05-04 22:23 | 35.30782 | -82.78447 | 34232 ft | 389 kts | 279° |
| 2026-05-04 22:23 | 35.31518 | -82.81625 | 34567 ft | 387 kts | 280° |
| 2026-05-04 22:23 | 35.32265 | -82.84880 | 34889 ft | 386 kts | 281° |
| 2026-05-04 22:23 | 35.33006 | -82.88123 | 35254 ft | 383 kts | 282° |
| 2026-05-04 22:24 | 35.33724 | -82.91248 | 35601 ft | 381 kts | 283° |
| 2026-05-04 22:24 | 35.34435 | -82.94350 | 35890 ft | 379 kts | 283° |
| 2026-05-04 22:24 | 35.35122 | -82.97341 | 36132 ft | 379 kts | 284° |
| 2026-05-04 22:24 | 35.35800 | -83.00297 | 36363 ft | 378 kts | 285° |
| 2026-05-04 22:25 | 35.36526 | -83.03462 | 36566 ft | 379 kts | 285° |
| 2026-05-04 22:25 | 35.37229 | -83.06512 | 36708 ft | 380 kts | 286° |
| 2026-05-04 22:25 | 35.37960 | -83.09679 | 36859 ft | 381 kts | 286° |
| 2026-05-04 22:25 | 35.38693 | -83.12869 | 37072 ft | 381 kts | 286° |
| 2026-05-04 22:26 | 35.39409 | -83.16004 | 37256 ft | 381 kts | 285° |
| 2026-05-04 22:26 | 35.40131 | -83.19170 | 37436 ft | 381 kts | 285° |
| 2026-05-04 22:26 | 35.40837 | -83.22276 | 37616 ft | 381 kts | 286° |
| 2026-05-04 22:26 | 35.41550 | -83.25411 | 37786 ft | 381 kts | 286° |
| 2026-05-04 22:27 | 35.42267 | -83.28539 | 37932 ft | 381 kts | 286° |
| 2026-05-04 22:27 | 35.43700 | -83.34837 | 37953 ft | 389 kts | 286° |